createdAt,value
2019-01-18T00:02:30.226Z,100023.30
2019-01-18T00:04:58.303Z,100028.83
2019-01-18T00:07:26.283Z,100032.36
2019-01-18T00:09:54.268Z,100035.56
2019-01-18T00:12:22.117Z,100042.61
2019-01-18T00:14:50.086Z,100038.38
2019-01-18T00:17:18.055Z,100036.61
2019-01-18T00:19:46.089Z,100035.31
2019-01-18T00:22:14.059Z,100030.95
2019-01-18T00:24:42.047Z,100034.97
2019-01-18T00:27:10.088Z,100037.81
2019-01-18T00:29:38.085Z,100035.36
2019-01-18T00:32:06.106Z,100048.05
2019-01-18T00:34:34.100Z,100049.00
2019-01-18T00:37:02.110Z,100047.23
2019-01-18T00:39:30.101Z,100045.33
2019-01-18T00:41:58.095Z,100044.89
2019-01-18T00:44:26.096Z,100044.77
2019-01-18T00:46:54.397Z,100050.29
2019-01-18T00:49:22.413Z,100050.63
2019-01-18T00:51:51.624Z,100048.73
2019-01-18T00:54:19.614Z,100059.44
2019-01-18T00:56:47.858Z,100066.29
2019-01-18T00:59:16.211Z,100067.11
2019-01-18T01:01:44.294Z,100070.65
2019-01-18T01:04:12.305Z,100071.47
2019-01-18T01:06:40.302Z,100076.65
2019-01-18T01:09:08.264Z,100074.88
2019-01-18T01:11:36.228Z,100079.59
2019-01-18T01:14:04.406Z,100089.94
2019-01-18T01:16:32.379Z,100093.01
2019-01-18T01:19:00.606Z,100099.95
2019-01-18T01:21:28.605Z,100099.95
2019-01-18T01:23:56.940Z,100096.55
2019-01-18T01:26:24.911Z,100103.47
2019-01-18T01:28:52.933Z,100103.38
2019-01-18T01:31:20.899Z,100106.56
2019-01-18T01:33:49.219Z,100104.45
2019-01-18T01:36:17.260Z,100111.27
2019-01-18T01:38:45.278Z,100115.16
2019-01-18T01:41:13.266Z,100115.84
2019-01-18T01:43:41.280Z,100122.67
2019-01-18T01:46:09.285Z,100123.14
2019-01-18T01:48:39.175Z,100129.74
2019-01-18T01:51:07.219Z,100135.62
2019-01-18T01:53:35.240Z,100136.22
2019-01-18T01:56:03.281Z,100141.65
2019-01-18T01:58:31.694Z,100145.28
2019-01-18T02:00:59.696Z,100150.70
2019-01-18T02:03:27.685Z,100146.70
2019-01-18T02:05:55.686Z,100153.39
2019-01-18T02:08:23.671Z,100156.23
2019-01-18T02:11:00.601Z,100156.11
2019-01-18T02:13:30.579Z,100152.09
2019-01-18T02:15:58.595Z,100158.92
2019-01-18T02:18:29.709Z,100161.38
2019-01-18T02:20:57.721Z,100160.91
2019-01-18T02:23:25.819Z,100163.97
2019-01-18T02:25:53.815Z,100161.86
2019-01-18T02:28:21.819Z,100162.67
2019-01-18T02:30:49.906Z,100166.91
2019-01-18T02:33:17.892Z,100165.52
2019-01-18T02:35:45.945Z,100165.52
2019-01-18T02:38:13.944Z,100164.70
2019-01-18T02:40:42.263Z,100167.29
2019-01-18T02:43:10.296Z,100169.97
2019-01-18T02:45:38.303Z,100158.92
2019-01-18T02:48:06.296Z,100169.28
2019-01-18T02:50:34.346Z,100170.23
2019-01-18T02:53:03.833Z,100166.13
2019-01-18T02:55:32.602Z,100173.41
2019-01-18T02:58:00.614Z,100166.13
2019-01-18T03:00:28.631Z,100166.22
2019-01-18T03:02:56.927Z,100169.75
2019-01-18T03:05:26.386Z,100173.41
2019-01-18T03:07:54.806Z,100175.05
2019-01-18T03:10:26.542Z,100172.47
2019-01-18T03:12:54.548Z,100177.30
2019-01-18T03:15:22.675Z,100176.13
2019-01-18T03:17:50.652Z,100181.78
2019-01-18T03:20:19.176Z,100179.53
2019-01-18T03:22:47.184Z,100173.76
2019-01-18T03:25:20.011Z,100176.34
2019-01-18T03:27:48.012Z,100181.78
2019-01-18T03:30:18.553Z,100178.24
2019-01-18T03:32:46.562Z,100173.41
2019-01-18T03:35:16.869Z,100180.92
2019-01-18T03:37:46.042Z,100172.59
2019-01-18T03:40:15.366Z,100182.83
2019-01-18T03:42:43.667Z,100185.98
2019-01-18T03:45:14.751Z,100183.17
2019-01-18T03:47:42.751Z,100183.27
2019-01-18T03:50:15.526Z,100190.47
2019-01-18T03:52:43.884Z,100192.46
2019-01-18T03:55:12.427Z,100197.98
2019-01-18T03:57:40.432Z,100204.47
2019-01-18T04:00:13.320Z,100206.58
2019-01-18T04:02:41.422Z,100204.81
2019-01-18T04:05:09.954Z,100209.05
2019-01-18T04:07:37.965Z,100211.64
2019-01-18T04:10:08.796Z,100210.34
2019-01-18T04:12:36.845Z,100210.72
2019-01-18T04:15:08.955Z,100214.48
2019-01-18T04:17:37.327Z,100215.30
2019-01-18T04:20:06.909Z,100216.95
2019-01-18T04:22:34.953Z,100216.34
2019-01-18T04:25:08.266Z,100217.17
2019-01-18T04:27:36.311Z,100220.61
2019-01-18T04:30:07.806Z,100221.78
2019-01-18T04:32:35.841Z,100220.48
2019-01-18T04:35:07.671Z,100220.95
2019-01-18T04:37:35.777Z,100224.38
2019-01-18T04:40:07.951Z,100226.48
2019-01-18T04:42:36.033Z,100230.25
2019-01-18T04:45:06.345Z,100226.84
2019-01-18T04:47:34.452Z,100229.42
2019-01-18T04:50:03.943Z,100232.96
2019-01-18T04:52:31.997Z,100232.48
2019-01-18T04:55:00.082Z,100235.91
2019-01-18T04:57:28.255Z,100235.08
2019-01-18T04:59:56.317Z,100236.03
2019-01-18T05:02:24.361Z,100242.03
2019-01-18T05:04:52.439Z,100242.73
2019-01-18T05:07:20.537Z,100250.37
2019-01-18T05:09:48.784Z,100246.02
2019-01-18T05:12:17.987Z,100249.42
2019-01-18T05:14:45.975Z,100237.89
2019-01-18T05:17:13.987Z,100240.13
2019-01-18T05:19:41.990Z,100242.38
2019-01-18T05:22:10.080Z,100246.48
2019-01-18T05:24:38.087Z,100250.72
2019-01-18T05:27:06.807Z,100254.16
2019-01-18T05:29:34.895Z,100263.58
2019-01-18T05:32:02.959Z,100261.47
2019-01-18T05:34:31.072Z,100270.41
2019-01-18T05:36:59.157Z,100267.34
2019-01-18T05:39:27.170Z,100269.93
2019-01-18T05:41:55.563Z,100275.24
2019-01-18T05:44:23.668Z,100273.59
2019-01-18T05:46:51.821Z,100270.63
2019-01-18T05:49:19.819Z,100273.69
2019-01-18T05:51:47.892Z,100274.98
2019-01-18T05:54:15.939Z,100278.05
2019-01-18T05:56:43.944Z,100287.72
2019-01-18T05:59:12.477Z,100289.95
2019-01-18T06:01:40.807Z,100295.27
2019-01-18T06:04:10.232Z,100297.59
2019-01-18T06:06:38.598Z,100296.30
2019-01-18T06:09:08.424Z,100294.19
2019-01-18T06:11:36.473Z,100293.84
2019-01-18T06:14:04.525Z,100287.95
2019-01-18T06:16:32.524Z,100289.00
2019-01-18T06:19:02.397Z,100288.30
2019-01-18T06:21:30.805Z,100295.95
2019-01-18T06:23:59.246Z,100289.95
2019-01-18T06:26:27.306Z,100285.23
2019-01-18T06:28:55.487Z,100281.34
2019-01-18T06:31:23.661Z,100283.47
2019-01-18T06:33:51.979Z,100280.41
2019-01-18T06:36:21.249Z,100282.64
2019-01-18T06:38:49.349Z,100289.84
2019-01-18T06:41:37.340Z,100294.29
2019-01-18T06:44:05.432Z,100299.94
2019-01-18T06:46:33.612Z,100305.00
2019-01-18T06:49:02.109Z,100309.49
2019-01-18T06:51:30.163Z,100312.31
2019-01-18T06:53:58.274Z,100310.45
2019-01-18T06:56:28.071Z,100312.79
2019-01-18T06:58:56.147Z,100308.31
2019-01-18T07:01:25.216Z,100313.88
2019-01-18T07:03:53.638Z,100324.45
2019-01-18T07:06:21.696Z,100323.04
2019-01-18T07:08:50.288Z,100330.69
2019-01-18T07:11:18.577Z,100328.45
2019-01-18T07:13:47.229Z,100331.89
2019-01-18T07:16:16.616Z,100337.98
2019-01-18T07:18:44.797Z,100345.77
2019-01-18T07:21:12.885Z,100352.15
2019-01-18T07:23:41.087Z,100354.27
2019-01-18T07:26:09.236Z,100354.61
2019-01-18T07:28:38.224Z,100359.67
2019-01-18T07:31:07.737Z,100358.38
2019-01-18T07:33:35.784Z,100362.27
2019-01-18T07:36:03.895Z,100358.25
2019-01-18T07:38:32.001Z,100362.14
2019-01-18T07:41:01.227Z,100369.82
2019-01-18T07:43:29.252Z,100377.59
2019-01-18T07:45:57.334Z,100372.86
2019-01-18T07:48:25.427Z,100375.22
2019-01-18T07:50:53.483Z,100375.81
2019-01-18T07:55:49.908Z,100386.39
2019-01-18T07:58:17.972Z,100393.22
2019-01-18T08:00:46.035Z,100394.98
2019-01-18T08:03:14.101Z,100394.88
2019-01-18T08:05:44.103Z,100398.07
2019-01-18T08:08:12.203Z,100394.62
2019-01-18T08:10:40.253Z,100395.48
2019-01-18T08:13:09.746Z,100401.09
2019-01-18T08:15:37.795Z,100400.54
2019-01-18T08:18:05.924Z,100410.42
2019-01-18T08:20:33.981Z,100410.19
2019-01-18T08:23:02.330Z,100408.67
2019-01-18T08:25:30.407Z,100412.31
2019-01-18T08:27:59.031Z,100417.38
2019-01-18T08:30:29.374Z,100415.52
2019-01-18T08:32:58.471Z,100421.75
2019-01-18T08:35:27.865Z,100420.34
2019-01-18T08:37:55.942Z,100414.94
2019-01-18T08:40:38.770Z,100411.62
2019-01-18T08:43:10.938Z,100411.89
2019-01-18T08:45:49.030Z,100412.34
2019-01-18T08:48:18.348Z,100419.56
2019-01-18T08:50:46.500Z,100415.30
2019-01-18T08:53:14.694Z,100410.25
2019-01-18T08:55:42.775Z,100418.12
2019-01-18T08:58:12.611Z,100416.48
2019-01-18T09:00:40.888Z,100416.61
2019-01-18T09:03:10.458Z,100421.08
2019-01-18T09:05:38.560Z,100423.32
2019-01-18T09:08:06.632Z,100424.02
2019-01-18T09:10:34.991Z,100427.22
2019-01-18T09:13:03.139Z,100424.84
2019-01-18T09:15:31.217Z,100426.39
2019-01-18T09:17:59.269Z,100436.64
2019-01-18T09:20:27.990Z,100432.88
2019-01-18T09:22:57.597Z,100433.92
2019-01-18T09:25:25.697Z,100437.95
2019-01-18T09:27:54.187Z,100433.67
2019-01-18T09:30:25.801Z,100445.83
2019-01-18T09:32:54.883Z,100447.47
2019-01-18T09:35:24.041Z,100446.30
2019-01-18T09:37:52.558Z,100445.83
2019-01-18T09:40:26.951Z,100445.60
2019-01-18T09:42:55.021Z,100449.49
2019-01-18T09:45:24.334Z,100452.09
2019-01-18T09:47:52.402Z,100454.33
2019-01-18T09:50:23.652Z,100448.80
2019-01-18T09:52:52.050Z,100454.08
2019-01-18T09:55:21.817Z,100457.28
2019-01-18T09:57:49.998Z,100458.92
2019-01-18T10:00:24.720Z,100457.02
2019-01-18T10:02:52.842Z,100454.52
2019-01-18T10:05:21.731Z,100453.02
2019-01-18T10:07:49.809Z,100449.91
2019-01-18T10:10:18.961Z,100450.48
2019-01-18T10:12:47.710Z,100442.13
2019-01-18T10:15:22.475Z,100434.77
2019-01-18T10:17:50.880Z,100434.52
2019-01-18T10:20:19.021Z,100437.02
2019-01-18T10:22:47.586Z,100431.00
2019-01-18T10:25:15.907Z,100423.93
2019-01-18T10:27:44.021Z,100421.07
2019-01-18T10:30:16.855Z,100418.25
2019-01-18T10:32:45.726Z,100417.34
2019-01-18T10:35:15.822Z,100409.98
2019-01-18T10:37:45.962Z,100411.36
2019-01-18T10:40:14.786Z,100412.91
2019-01-18T10:42:44.448Z,100410.27
2019-01-18T10:45:13.557Z,100402.11
2019-01-18T10:47:41.636Z,100400.38
2019-01-18T10:50:16.004Z,100403.17
2019-01-18T10:52:44.088Z,100403.91
2019-01-18T10:55:12.275Z,100397.70
2019-01-18T10:57:40.579Z,100401.83
2019-01-18T11:00:13.695Z,100400.03
2019-01-18T11:02:41.696Z,100404.60
2019-01-18T11:05:10.538Z,100397.38
2019-01-18T11:07:38.570Z,100391.81
2019-01-18T11:10:08.688Z,100395.26
2019-01-18T11:12:36.717Z,100401.66
2019-01-18T11:15:08.954Z,100390.99
2019-01-18T11:17:36.992Z,100394.76
2019-01-18T11:20:11.522Z,100384.59
2019-01-18T11:22:39.494Z,100387.53
2019-01-18T11:25:09.005Z,100387.25
2019-01-18T11:27:37.028Z,100380.47
2019-01-18T11:30:09.441Z,100378.58
2019-01-18T11:32:37.432Z,100379.95
2019-01-18T11:35:05.708Z,100382.16
2019-01-18T11:37:33.705Z,100378.86
2019-01-18T11:40:01.847Z,100379.95
2019-01-18T11:42:30.127Z,100372.92
2019-01-18T11:44:58.140Z,100376.48
2019-01-18T11:47:26.144Z,100376.92
2019-01-18T11:49:54.320Z,100373.70
2019-01-18T11:52:22.336Z,100368.16
2019-01-18T11:54:50.505Z,100374.33
2019-01-18T11:57:18.550Z,100373.10
2019-01-18T11:59:49.080Z,100368.27
2019-01-18T12:02:22.022Z,100368.98
2019-01-18T12:04:47.101Z,100371.25
2019-01-18T12:07:15.120Z,100369.09
2019-01-18T12:09:43.209Z,100361.11
2019-01-18T12:12:11.246Z,100362.09
2019-01-18T12:14:39.232Z,100364.69
2019-01-18T12:17:08.258Z,100359.57
2019-01-18T12:19:37.290Z,100355.95
2019-01-18T12:22:05.295Z,100350.19
2019-01-18T12:24:33.269Z,100352.14
2019-01-18T12:27:01.302Z,100351.59
2019-01-18T12:29:29.279Z,100349.29
2019-01-18T12:31:57.451Z,100351.50
2019-01-18T12:34:25.425Z,100351.66
2019-01-18T12:36:58.853Z,100352.96
2019-01-18T12:39:23.382Z,100348.08
2019-01-18T12:41:51.382Z,100356.63
2019-01-18T12:44:20.082Z,100342.94
2019-01-18T12:46:48.443Z,100350.95
2019-01-18T12:49:16.435Z,100354.11
2019-01-18T12:51:44.420Z,100350.53
2019-01-18T12:54:12.570Z,100354.11
2019-01-18T12:56:40.732Z,100352.47
2019-01-18T12:59:09.943Z,100351.80
2019-01-18T13:01:38.013Z,100352.90
2019-01-18T13:04:08.258Z,100354.75
2019-01-18T13:06:36.152Z,100352.47
2019-01-18T13:09:06.456Z,100345.13
2019-01-18T13:11:34.786Z,100345.44
2019-01-18T13:14:03.407Z,100342.51
2019-01-18T13:16:42.076Z,100341.43
2019-01-18T13:19:23.458Z,100336.92
2019-01-18T13:21:51.479Z,100332.49
2019-01-18T13:24:19.692Z,100334.39
2019-01-18T13:26:47.750Z,100330.63
2019-01-18T13:29:15.754Z,100326.17
2019-01-18T13:31:44.034Z,100324.27
2019-01-18T13:34:12.057Z,100324.79
2019-01-18T13:36:40.077Z,100326.98
2019-01-18T13:39:10.499Z,100329.99
2019-01-18T13:41:38.644Z,100330.85
2019-01-18T13:44:06.637Z,100323.40
2019-01-18T13:46:34.756Z,100325.52
2019-01-18T13:49:03.499Z,100323.44
2019-01-18T13:51:31.537Z,100324.80
2019-01-18T13:53:59.601Z,100325.81
2019-01-18T13:56:27.722Z,100330.55
2019-01-18T13:58:55.723Z,100328.97
2019-01-18T14:01:23.713Z,100324.76
2019-01-18T14:03:51.765Z,100333.62
2019-01-18T14:06:19.783Z,100328.58
2019-01-18T14:08:47.873Z,100331.25
2019-01-18T14:11:17.361Z,100334.69
2019-01-18T14:13:45.364Z,100329.13
2019-01-18T14:16:13.419Z,100329.47
2019-01-18T14:18:41.564Z,100334.20
2019-01-18T14:21:10.866Z,100324.92
2019-01-18T14:23:38.935Z,100322.37
2019-01-18T14:26:06.921Z,100323.86
2019-01-18T14:28:35.096Z,100323.22
2019-01-18T14:31:03.099Z,100313.48
2019-01-18T14:33:31.129Z,100325.08
2019-01-18T14:35:59.537Z,100318.06
2019-01-18T14:38:27.942Z,100319.40
2019-01-18T14:40:56.125Z,100313.09
2019-01-18T14:43:25.777Z,100321.91
2019-01-18T14:45:53.921Z,100320.43
2019-01-18T14:48:21.979Z,100324.10
2019-01-18T14:50:50.776Z,100326.66
2019-01-18T14:53:19.193Z,100317.67
2019-01-18T14:55:47.422Z,100323.86
2019-01-18T14:58:15.622Z,100323.86
2019-01-18T15:00:43.741Z,100322.89
2019-01-18T15:03:13.543Z,100323.70
2019-01-18T15:05:41.623Z,100319.46
2019-01-18T15:08:09.645Z,100322.06
2019-01-18T15:10:37.641Z,100318.30
2019-01-18T15:13:13.298Z,100324.62
2019-01-18T15:15:41.411Z,100326.22
2019-01-18T15:18:10.564Z,100328.25
2019-01-18T15:20:39.271Z,100326.21
2019-01-18T15:23:07.355Z,100322.53
2019-01-18T15:25:35.372Z,100322.13
2019-01-18T15:28:03.630Z,100322.51
2019-01-18T15:30:31.660Z,100325.34
2019-01-18T15:33:01.123Z,100322.00
2019-01-18T15:35:32.445Z,100325.80
2019-01-18T15:38:00.674Z,100319.50
2019-01-18T15:40:30.752Z,100317.20
2019-01-18T15:43:01.025Z,100313.50
2019-01-18T15:45:29.207Z,100315.02
2019-01-18T15:47:57.442Z,100315.38
2019-01-18T15:50:29.823Z,100310.87
2019-01-18T15:52:58.570Z,100306.95
2019-01-18T15:55:27.004Z,100304.84
2019-01-18T15:57:55.035Z,100306.68
2019-01-18T16:00:30.051Z,100306.69
2019-01-18T16:02:58.873Z,100305.58
2019-01-18T16:05:27.181Z,100304.93
2019-01-18T16:07:55.490Z,100301.70
2019-01-18T16:10:25.224Z,100299.77
2019-01-18T16:12:54.220Z,100296.06
2019-01-18T16:15:49.266Z,100297.41
2019-01-18T16:18:18.215Z,100295.48
2019-01-18T16:20:47.212Z,100291.09
2019-01-18T16:23:15.296Z,100290.79
2019-01-18T16:25:43.320Z,100289.67
2019-01-18T16:28:12.145Z,100290.67
2019-01-18T16:30:41.345Z,100292.15
2019-01-18T16:33:10.527Z,100291.02
2019-01-18T16:35:39.136Z,100289.08
2019-01-18T16:38:09.343Z,100289.25
2019-01-18T16:40:37.615Z,100286.34
2019-01-18T16:43:19.400Z,100287.78
2019-01-18T16:45:47.419Z,100284.05
2019-01-18T16:48:15.504Z,100278.67
2019-01-18T16:50:43.514Z,100277.20
2019-01-18T16:53:13.223Z,100278.18
2019-01-18T16:55:41.245Z,100276.56
2019-01-18T16:58:09.548Z,100274.81
2019-01-18T17:00:39.811Z,100274.02
2019-01-18T17:03:08.182Z,100274.03
2019-01-18T17:05:36.848Z,100268.86
2019-01-18T17:08:05.344Z,100268.41
2019-01-18T17:10:35.427Z,100268.55
2019-01-18T17:13:04.120Z,100269.39
2019-01-18T17:15:33.183Z,100270.84
2019-01-18T17:18:01.410Z,100268.86
2019-01-18T17:20:32.812Z,100267.70
2019-01-18T17:23:00.858Z,100258.90
2019-01-18T17:25:28.978Z,100268.45
2019-01-18T17:27:57.067Z,100271.19
2019-01-18T17:30:25.611Z,100269.08
2019-01-18T17:32:53.739Z,100271.20
2019-01-18T17:35:44.887Z,100271.67
2019-01-18T17:39:01.306Z,100271.80
2019-01-18T17:42:42.555Z,100270.16
2019-01-18T17:45:57.325Z,100273.59
2019-01-18T17:49:18.765Z,100264.64
2019-01-18T17:52:50.396Z,100273.92
2019-01-18T17:56:37.733Z,100269.45
2019-01-18T18:00:20.486Z,100270.98
2019-01-18T18:03:36.523Z,100274.16
2019-01-18T18:06:41.031Z,100279.17
2019-01-18T18:10:08.321Z,100266.81
2019-01-18T18:14:02.106Z,100267.73
2019-01-18T18:17:27.123Z,100276.66
2019-01-18T18:20:31.924Z,100274.50
2019-01-18T18:23:37.878Z,100275.77
2019-01-18T18:27:22.299Z,100276.56
2019-01-18T18:30:33.621Z,100280.33
2019-01-18T18:33:34.259Z,100275.95
2019-01-18T18:37:08.445Z,100273.60
2019-01-18T18:40:49.587Z,100272.62
2019-01-18T18:43:51.641Z,100274.59
2019-01-18T18:47:07.410Z,100272.25
2019-01-18T18:50:27.900Z,100265.98
2019-01-18T18:53:38.981Z,100263.98
2019-01-18T18:57:12.863Z,100267.27
2019-01-18T19:00:36.169Z,100265.25
2019-01-18T19:04:14.301Z,100254.79
2019-01-18T19:07:26.270Z,100258.63
2019-01-18T19:10:56.795Z,100251.98
2019-01-18T19:14:38.471Z,100248.80
2019-01-18T19:17:56.501Z,100248.53
2019-01-18T19:21:28.216Z,100247.52
2019-01-18T19:24:42.468Z,100243.59
2019-01-18T19:28:22.310Z,100237.48
2019-01-18T19:31:45.667Z,100237.79
2019-01-18T19:34:37.463Z,100229.64
2019-01-18T19:37:40.724Z,100218.91
2019-01-18T19:41:21.334Z,100216.91
2019-01-18T19:44:58.752Z,100215.00
2019-01-18T19:48:30.221Z,100214.87
2019-01-18T19:51:53.795Z,100219.52
2019-01-18T19:54:39.140Z,100215.48
2019-01-18T19:58:15.878Z,100218.75
2019-01-18T20:01:22.588Z,100217.77
2019-01-18T20:04:50.548Z,100214.59
2019-01-18T20:08:14.015Z,100221.59
2019-01-18T20:11:54.973Z,100215.25
2019-01-18T20:15:49.117Z,100217.94
2019-01-18T20:19:24.669Z,100213.25
2019-01-18T20:23:10.372Z,100212.27
2019-01-18T20:25:58.722Z,100216.02
2019-01-18T20:29:15.044Z,100213.36
2019-01-18T20:32:52.671Z,100211.14
2019-01-18T20:36:35.739Z,100214.19
2019-01-18T20:40:32.841Z,100214.02
2019-01-18T20:43:34.932Z,100211.84
2019-01-18T20:47:10.624Z,100216.13
2019-01-18T20:50:24.582Z,100214.70
2019-01-18T20:53:31.587Z,100213.14
2019-01-18T20:56:37.322Z,100214.54
2019-01-18T20:59:40.515Z,100220.52
2019-01-18T21:02:40.649Z,100224.03
2019-01-18T21:06:15.437Z,100223.56
2019-01-18T21:09:16.299Z,100220.98
2019-01-18T21:12:38.299Z,100220.73
2019-01-18T21:15:18.639Z,100223.04
2019-01-18T21:18:11.263Z,100222.11
2019-01-18T21:21:52.854Z,100219.52
2019-01-18T21:25:08.134Z,100227.08
2019-01-18T21:28:42.569Z,100227.27
2019-01-18T21:32:11.972Z,100226.09
2019-01-18T21:35:23.139Z,100219.03
2019-01-18T21:38:46.432Z,100220.40
2019-01-18T21:41:58.342Z,100216.28
2019-01-18T21:45:54.612Z,100221.80
2019-01-18T21:49:14.181Z,100220.73
2019-01-18T21:52:34.379Z,100212.24
2019-01-18T21:55:58.684Z,100213.75
2019-01-18T21:59:32.961Z,100212.21
2019-01-18T22:03:10.165Z,100220.95
2019-01-18T22:06:24.125Z,100218.59
2019-01-18T22:09:14.594Z,100223.11
2019-01-18T22:12:47.308Z,100222.03
2019-01-18T22:15:53.117Z,100223.05
2019-01-18T22:19:22.948Z,100221.04
2019-01-18T22:23:06.697Z,100228.77
2019-01-18T22:27:02.921Z,100231.92
2019-01-18T22:30:25.128Z,100227.16
2019-01-18T22:33:47.572Z,100229.92
2019-01-18T22:37:06.849Z,100234.36
2019-01-18T22:40:12.006Z,100236.22
2019-01-18T22:43:35.842Z,100237.61
2019-01-18T22:46:46.475Z,100232.92
2019-01-18T22:49:39.361Z,100231.34
2019-01-18T22:53:23.067Z,100234.03
2019-01-18T22:56:35.915Z,100230.63
2019-01-18T23:00:11.555Z,100236.36
2019-01-18T23:03:42.289Z,100235.53
2019-01-18T23:07:15.339Z,100228.91
2019-01-18T23:10:31.926Z,100234.81
2019-01-18T23:14:09.529Z,100234.66
2019-01-18T23:17:37.110Z,100235.95
2019-01-18T23:21:08.051Z,100235.12
2019-01-18T23:24:27.864Z,100235.20
2019-01-18T23:27:46.855Z,100228.04
2019-01-18T23:31:10.085Z,100227.39
2019-01-18T23:34:20.802Z,100231.36
2019-01-18T23:37:23.151Z,100224.77
2019-01-18T23:41:06.878Z,100213.92
2019-01-18T23:44:43.420Z,100211.27
2019-01-18T23:48:11.145Z,100211.03
2019-01-18T23:51:36.652Z,100208.38
2019-01-18T23:55:02.937Z,100208.91
2019-01-18T23:58:52.972Z,100205.51
